createdAt,value
2022-11-01T00:01:54.345Z,8.80
2022-11-01T00:04:22.824Z,9.32
2022-11-01T00:06:51.363Z,8.57
2022-11-01T00:09:19.582Z,8.80
2022-11-01T00:11:47.284Z,9.13
2022-11-01T00:14:17.545Z,8.30
2022-11-01T00:16:45.192Z,8.15
2022-11-01T00:19:13.130Z,8.10
2022-11-01T00:21:40.873Z,7.40
2022-11-01T00:24:08.713Z,7.53
2022-11-01T00:26:36.458Z,7.85
2022-11-01T00:29:04.554Z,7.80
2022-11-01T00:31:33.649Z,7.20
2022-11-01T00:34:03.791Z,6.85
2022-11-01T00:36:31.573Z,6.55
2022-11-01T00:38:59.209Z,7.07
2022-11-01T00:41:26.813Z,6.28
2022-11-01T00:43:54.559Z,7.28
2022-11-01T00:46:22.173Z,6.20
2022-11-01T00:48:51.200Z,6.70
2022-11-01T00:51:19.564Z,6.47
2022-11-01T00:53:47.082Z,6.47
2022-11-01T00:56:14.646Z,6.18
2022-11-01T00:58:42.448Z,6.43
2022-11-01T01:01:10.319Z,6.18
2022-11-01T01:03:38.044Z,6.30
2022-11-01T01:06:07.398Z,5.65
2022-11-01T01:08:35.168Z,6.40
2022-11-01T01:11:02.729Z,5.88
2022-11-01T01:13:30.332Z,5.60
2022-11-01T01:15:58.566Z,6.13
2022-11-01T01:18:26.118Z,5.10
2022-11-01T01:21:01.257Z,4.97
2022-11-01T01:23:33.243Z,5.53
2022-11-01T01:26:01.017Z,5.70
2022-11-01T01:28:29.022Z,5.85
2022-11-01T01:30:57.688Z,5.50
2022-11-01T01:33:25.266Z,5.43
2022-11-01T01:35:53.014Z,4.93
2022-11-01T01:38:20.582Z,4.60
2022-11-01T01:40:49.722Z,5.18
2022-11-01T01:43:17.262Z,5.40
2022-11-01T01:45:45.084Z,4.70
2022-11-01T01:48:17.150Z,5.15
2022-11-01T01:50:49.687Z,4.70
2022-11-01T01:53:21.796Z,4.88
2022-11-01T01:55:55.215Z,4.95
2022-11-01T01:58:24.498Z,4.93
2022-11-01T02:00:53.940Z,4.57
2022-11-01T02:03:22.876Z,4.40
2022-11-01T02:05:52.652Z,4.45
2022-11-01T02:08:27.966Z,4.57
2022-11-01T02:10:59.597Z,4.75
2022-11-01T02:13:27.219Z,4.28
2022-11-01T02:16:05.496Z,4.05
2022-11-01T02:18:37.366Z,4.25
2022-11-01T02:21:24.221Z,4.05
2022-11-01T02:24:06.739Z,4.00
2022-11-01T02:27:00.728Z,3.92
2022-11-01T02:29:46.934Z,3.85
2022-11-01T02:32:19.109Z,3.75
2022-11-01T02:34:51.684Z,4.05
2022-11-01T02:37:23.880Z,3.65
2022-11-01T02:39:53.752Z,3.95
2022-11-01T02:42:23.066Z,4.10
2022-11-01T02:44:54.782Z,3.75
2022-11-01T02:47:24.733Z,3.60
2022-11-01T02:49:55.739Z,3.92
2022-11-01T02:52:25.325Z,3.80
2022-11-01T02:54:54.816Z,3.83
2022-11-01T02:57:31.998Z,3.75
2022-11-01T03:00:05.101Z,3.28
2022-11-01T03:02:41.440Z,3.55
2022-11-01T03:05:14.538Z,3.13
2022-11-01T03:07:44.426Z,3.78
2022-11-01T03:10:12.282Z,3.53
2022-11-01T03:12:49.742Z,3.88
2022-11-01T03:15:22.194Z,3.60
2022-11-01T03:17:55.764Z,3.70
2022-11-01T03:20:26.609Z,3.15
2022-11-01T03:22:56.669Z,3.22
2022-11-01T03:25:40.620Z,3.65
2022-11-01T03:28:11.354Z,2.97
2022-11-01T03:30:43.098Z,3.50
2022-11-01T03:33:13.182Z,3.55
2022-11-01T03:35:41.663Z,2.88
2022-11-01T03:38:11.646Z,3.30
2022-11-01T03:40:43.127Z,3.78
2022-11-01T03:43:13.564Z,3.20
2022-11-01T03:45:41.314Z,3.15
2022-11-01T03:48:09.160Z,3.30
2022-11-01T03:50:39.987Z,3.40
2022-11-01T03:53:07.651Z,3.50
2022-11-01T03:55:35.419Z,3.35
2022-11-01T03:58:03.356Z,3.22
2022-11-01T04:00:33.878Z,3.40
2022-11-01T04:03:02.015Z,3.50
2022-11-01T04:05:31.226Z,2.95
2022-11-01T04:08:00.272Z,3.77
2022-11-01T04:10:31.533Z,4.00
2022-11-01T04:12:59.930Z,3.95
2022-11-01T04:15:46.708Z,4.45
2022-11-01T04:18:33.873Z,3.38
2022-11-01T04:21:04.667Z,3.25
2022-11-01T04:23:33.700Z,3.50
2022-11-01T04:26:01.267Z,3.40
2022-11-01T04:28:28.765Z,3.50
2022-11-01T04:30:56.623Z,3.28
2022-11-01T04:33:24.369Z,2.65
2022-11-01T04:35:52.077Z,3.50
2022-11-01T04:38:19.677Z,3.25
2022-11-01T04:40:48.669Z,3.22
2022-11-01T04:43:18.290Z,3.38
2022-11-01T04:45:46.084Z,2.90
2022-11-01T04:48:16.948Z,4.03
2022-11-01T04:50:45.871Z,3.53
2022-11-01T04:53:28.909Z,2.90
2022-11-01T04:55:57.840Z,2.97
2022-11-01T04:58:25.419Z,3.00
2022-11-01T05:00:53.037Z,3.10
2022-11-01T05:03:20.555Z,3.17
2022-11-01T05:05:48.316Z,2.75
2022-11-01T05:08:16.119Z,3.03
2022-11-01T05:10:46.453Z,3.20
2022-11-01T05:13:15.364Z,2.75
2022-11-01T05:15:53.580Z,3.28
2022-11-01T05:18:31.357Z,3.00
2022-11-01T05:20:59.137Z,3.00
2022-11-01T05:23:26.862Z,3.08
2022-11-01T05:25:54.607Z,2.97
2022-11-01T05:28:23.907Z,2.38
2022-11-01T05:30:51.458Z,3.05
2022-11-01T05:33:19.030Z,2.80
2022-11-01T05:35:46.867Z,3.20
2022-11-01T05:38:14.589Z,3.03
2022-11-01T05:40:42.115Z,2.53
2022-11-01T05:43:09.764Z,2.78
2022-11-01T05:45:39.733Z,3.00
2022-11-01T05:48:07.478Z,3.00
2022-11-01T05:50:35.092Z,3.13
2022-11-01T05:53:07.003Z,2.55
2022-11-01T05:55:36.570Z,2.95
2022-11-01T05:58:04.151Z,2.80
2022-11-01T06:00:32.278Z,3.05
2022-11-01T06:03:02.192Z,2.65
2022-11-01T06:05:31.914Z,2.97
2022-11-01T06:08:02.095Z,3.05
2022-11-01T06:10:29.764Z,2.42
2022-11-01T06:12:58.609Z,2.85
2022-11-01T06:15:27.389Z,2.72
2022-11-01T06:17:58.690Z,2.40
2022-11-01T06:20:29.590Z,2.73
2022-11-01T06:22:57.151Z,2.65
2022-11-01T06:25:25.775Z,2.80
2022-11-01T06:27:54.447Z,2.55
2022-11-01T06:30:22.060Z,2.20
2022-11-01T06:32:49.804Z,2.23
2022-11-01T06:35:17.368Z,2.17
2022-11-01T06:37:46.848Z,2.17
2022-11-01T06:40:14.458Z,2.27
2022-11-01T06:42:46.411Z,2.20
2022-11-01T06:45:14.609Z,2.00
2022-11-01T06:47:47.410Z,2.13
2022-11-01T06:50:15.175Z,2.30
2022-11-01T06:52:42.940Z,2.20
2022-11-01T06:55:12.286Z,1.70
2022-11-01T06:57:40.038Z,1.70
2022-11-01T07:00:09.340Z,1.80
2022-11-01T07:02:37.218Z,1.90
2022-11-01T07:05:05.213Z,1.88
2022-11-01T07:07:32.867Z,2.15
2022-11-01T07:10:00.470Z,1.65
2022-11-01T07:12:29.549Z,1.50
2022-11-01T07:14:57.244Z,1.47
2022-11-01T07:17:25.188Z,1.35
2022-11-01T07:19:52.731Z,1.53
2022-11-01T07:22:20.280Z,1.80
2022-11-01T07:24:48.051Z,1.23
2022-11-01T07:27:20.328Z,1.27
2022-11-01T07:29:49.946Z,1.23
2022-11-01T07:32:17.696Z,1.20
2022-11-01T07:34:45.624Z,1.00
2022-11-01T07:37:14.240Z,1.27
2022-11-01T07:39:41.965Z,0.80
2022-11-01T07:42:10.010Z,0.90
2022-11-01T07:44:37.787Z,0.93
2022-11-01T07:47:06.768Z,1.05
2022-11-01T07:49:34.349Z,0.60
2022-11-01T07:52:04.326Z,0.50
2022-11-01T07:54:32.058Z,0.43
2022-11-01T07:57:00.900Z,0.70
2022-11-01T07:59:28.661Z,0.30
2022-11-01T08:01:56.474Z,0.70
2022-11-01T08:04:25.573Z,0.55
2022-11-01T08:06:53.361Z,0.52
2022-11-01T08:09:22.124Z,0.63
2022-11-01T08:11:50.774Z,0.75
2022-11-01T08:14:18.442Z,0.50
2022-11-01T08:16:49.714Z,0.63
2022-11-01T08:19:18.304Z,0.50
2022-11-01T08:21:47.394Z,0.70
2022-11-01T08:24:15.178Z,0.35
2022-11-01T08:26:42.712Z,0.50
2022-11-01T08:29:24.579Z,0.65
2022-11-01T08:31:52.312Z,0.57
2022-11-01T08:34:20.347Z,0.65
2022-11-01T08:36:49.527Z,0.60
2022-11-01T08:39:17.237Z,1.00
2022-11-01T08:41:49.065Z,0.43
2022-11-01T08:44:17.626Z,0.90
2022-11-01T08:46:45.466Z,0.70
2022-11-01T08:49:13.507Z,0.80
2022-11-01T08:51:41.544Z,0.65
2022-11-01T08:54:10.747Z,0.50
2022-11-01T08:56:38.601Z,0.90
2022-11-01T08:59:06.303Z,0.65
2022-11-01T09:01:34.136Z,0.87
2022-11-01T09:04:02.005Z,0.70
2022-11-01T09:06:33.782Z,0.90
2022-11-01T09:09:04.036Z,1.10
2022-11-01T09:11:33.128Z,0.88
2022-11-01T09:14:01.382Z,1.00
2022-11-01T09:16:29.975Z,1.33
2022-11-01T09:19:01.701Z,1.40
2022-11-01T09:21:31.766Z,1.40
2022-11-01T09:23:59.904Z,1.33
2022-11-01T09:26:28.307Z,1.23
2022-11-01T09:28:58.950Z,1.30
2022-11-01T09:31:31.599Z,1.10
2022-11-01T09:34:00.410Z,1.50
2022-11-01T09:36:29.410Z,1.42
2022-11-01T09:38:59.412Z,1.30
2022-11-01T09:41:32.813Z,1.80
2022-11-01T09:44:03.484Z,1.40
2022-11-01T09:46:34.214Z,1.45
2022-11-01T09:49:03.560Z,1.45
2022-11-01T09:51:31.354Z,2.00
2022-11-01T09:54:04.216Z,1.40
2022-11-01T09:56:37.659Z,1.42
2022-11-01T09:59:16.175Z,1.60
2022-11-01T10:01:51.659Z,1.25
2022-11-01T10:04:28.560Z,1.53
2022-11-01T10:07:01.292Z,1.70
2022-11-01T10:09:38.502Z,1.40
2022-11-01T10:12:31.384Z,1.43
2022-11-01T10:15:10.390Z,1.45
2022-11-01T10:17:52.318Z,1.30
2022-11-01T10:20:21.587Z,1.60
2022-11-01T10:22:50.298Z,1.58
2022-11-01T10:25:22.859Z,1.75
2022-11-01T10:27:59.839Z,2.28
2022-11-01T10:30:30.129Z,1.58
2022-11-01T10:33:02.675Z,1.50
2022-11-01T10:35:33.477Z,1.70
2022-11-01T10:38:22.885Z,1.77
2022-11-01T10:40:55.402Z,1.50
2022-11-01T10:43:24.703Z,1.55
2022-11-01T10:45:56.401Z,1.48
2022-11-01T10:48:30.482Z,2.00
2022-11-01T10:51:01.091Z,1.73
2022-11-01T10:53:31.203Z,1.98
2022-11-01T10:56:01.946Z,1.27
2022-11-01T10:58:37.403Z,1.30
2022-11-01T11:01:08.444Z,1.42
2022-11-01T11:03:36.653Z,1.40
2022-11-01T11:06:07.078Z,1.60
2022-11-01T11:08:36.355Z,1.35
2022-11-01T11:11:10.559Z,1.55
2022-11-01T11:13:41.842Z,1.77
2022-11-01T11:16:16.625Z,1.38
2022-11-01T11:19:01.183Z,1.23
2022-11-01T11:21:34.204Z,1.65
2022-11-01T11:24:02.393Z,1.30
2022-11-01T11:26:38.754Z,1.33
2022-11-01T11:29:07.117Z,1.48
2022-11-01T11:31:36.605Z,1.60
2022-11-01T11:34:22.745Z,1.60
2022-11-01T11:36:52.123Z,1.60
2022-11-01T11:39:26.126Z,1.30
2022-11-01T11:41:53.830Z,1.23
2022-11-01T11:44:40.478Z,1.55
2022-11-01T11:47:19.876Z,1.50
2022-11-01T11:49:48.553Z,1.17
2022-11-01T11:52:18.323Z,1.40
2022-11-01T11:54:46.982Z,1.40
2022-11-01T11:57:18.888Z,1.85
2022-11-01T11:59:50.493Z,1.48
2022-11-01T12:02:23.566Z,1.63
2022-11-01T12:04:57.545Z,1.60
2022-11-01T12:07:28.813Z,1.58
2022-11-01T12:09:57.102Z,1.73
2022-11-01T12:12:26.573Z,1.30
2022-11-01T12:14:54.890Z,1.15
2022-11-01T12:17:36.498Z,1.65
2022-11-01T12:20:19.958Z,1.83
2022-11-01T12:22:50.842Z,1.35
2022-11-01T12:25:21.815Z,1.35
2022-11-01T12:27:57.335Z,1.80
2022-11-01T12:30:26.174Z,1.70
2022-11-01T12:32:57.395Z,1.25
2022-11-01T12:35:29.471Z,1.65
2022-11-01T12:38:05.729Z,1.60
2022-11-01T12:40:37.139Z,1.13
2022-11-01T12:43:12.834Z,1.30
2022-11-01T12:45:47.033Z,1.30
2022-11-01T12:48:22.362Z,1.67
2022-11-01T12:50:53.616Z,1.25
2022-11-01T12:53:24.059Z,1.38
2022-11-01T12:55:52.098Z,1.57
2022-11-01T12:58:23.014Z,1.20
2022-11-01T13:01:06.542Z,1.27
2022-11-01T13:03:45.522Z,1.40
2022-11-01T13:06:23.585Z,1.42
2022-11-01T13:08:57.542Z,1.43
2022-11-01T13:11:29.004Z,1.58
2022-11-01T13:14:08.785Z,1.50
2022-11-01T13:16:40.030Z,1.25
2022-11-01T13:19:15.244Z,1.40
2022-11-01T13:21:46.795Z,1.50
2022-11-01T13:24:17.685Z,1.50
2022-11-01T13:26:48.986Z,1.33
2022-11-01T13:29:19.057Z,1.90
2022-11-01T13:31:59.180Z,1.83
2022-11-01T13:34:38.187Z,1.30
2022-11-01T13:37:10.922Z,1.33
2022-11-01T13:39:48.246Z,1.52
2022-11-01T13:42:17.459Z,1.35
2022-11-01T13:44:48.038Z,1.38
2022-11-01T13:47:37.588Z,1.42
2022-11-01T13:50:44.017Z,1.23
2022-11-01T13:53:18.623Z,1.50
2022-11-01T13:55:50.954Z,1.38
2022-11-01T13:58:19.905Z,1.60
2022-11-01T14:00:50.424Z,1.83
2022-11-01T14:03:21.132Z,1.40
2022-11-01T14:06:20.512Z,1.20
2022-11-01T14:08:48.639Z,1.77
2022-11-01T14:11:48.627Z,1.80
2022-11-01T14:14:54.060Z,2.00
2022-11-01T14:17:40.165Z,1.10
2022-11-01T14:20:50.534Z,1.73
2022-11-01T14:23:48.772Z,1.33
2022-11-01T14:26:49.203Z,1.33
2022-11-01T14:29:17.033Z,1.30
2022-11-01T14:31:47.778Z,1.40
2022-11-01T14:34:31.813Z,1.73
2022-11-01T14:37:05.524Z,1.38
2022-11-01T14:39:37.188Z,1.30
2022-11-01T14:42:10.605Z,1.70
2022-11-01T14:44:39.771Z,1.70
2022-11-01T14:47:13.913Z,1.42
2022-11-01T14:49:43.958Z,1.20
2022-11-01T14:52:16.576Z,1.67
2022-11-01T14:54:47.260Z,1.43
2022-11-01T14:57:25.749Z,1.50
2022-11-01T14:59:53.546Z,1.30
2022-11-01T15:02:22.370Z,1.70
2022-11-01T15:04:50.834Z,1.75
2022-11-01T15:07:27.609Z,1.35
2022-11-01T15:10:00.254Z,1.90
2022-11-01T15:12:32.128Z,1.45
2022-11-01T15:15:01.059Z,1.75
2022-11-01T15:17:30.716Z,1.52
2022-11-01T15:19:59.357Z,1.40
2022-11-01T15:22:29.444Z,1.70
2022-11-01T15:24:58.538Z,1.73
2022-11-01T15:27:33.600Z,1.40
2022-11-01T15:30:02.411Z,1.45
2022-11-01T15:32:32.450Z,1.30
2022-11-01T15:35:03.306Z,1.67
2022-11-01T15:37:33.710Z,1.20
2022-11-01T15:40:02.361Z,1.40
2022-11-01T15:42:34.016Z,1.57
2022-11-01T15:45:19.731Z,1.30
2022-11-01T15:47:47.865Z,1.50
2022-11-01T15:50:16.623Z,1.17
2022-11-01T15:52:46.797Z,1.17
2022-11-01T15:55:18.928Z,1.57
2022-11-01T15:57:49.512Z,1.52
2022-11-01T16:00:18.772Z,1.50
2022-11-01T16:02:49.410Z,1.00
2022-11-01T16:05:19.629Z,1.00
2022-11-01T16:07:47.958Z,1.00
2022-11-01T16:10:18.044Z,1.30
2022-11-01T16:12:46.431Z,1.40
2022-11-01T16:15:22.248Z,1.10
2022-11-01T16:17:55.817Z,1.05
2022-11-01T16:20:30.250Z,1.05
2022-11-01T16:22:58.612Z,1.57
2022-11-01T16:25:27.720Z,1.27
2022-11-01T16:28:01.550Z,1.10
2022-11-01T16:30:42.882Z,1.10
2022-11-01T16:33:17.769Z,1.33
2022-11-01T16:35:46.346Z,1.20
2022-11-01T16:38:25.609Z,1.00
2022-11-01T16:40:55.967Z,1.10
2022-11-01T16:43:24.086Z,1.35
2022-11-01T16:45:54.097Z,1.30
2022-11-01T16:48:24.298Z,1.00
2022-11-01T16:50:53.562Z,1.35
2022-11-01T16:53:21.571Z,1.00
2022-11-01T16:55:49.563Z,1.25
2022-11-01T16:58:19.091Z,1.57
2022-11-01T17:00:55.426Z,1.40
2022-11-01T17:03:24.005Z,0.93
2022-11-01T17:05:56.262Z,1.58
2022-11-01T17:08:25.321Z,1.00
2022-11-01T17:10:54.047Z,1.52
2022-11-01T17:13:21.818Z,1.60
2022-11-01T17:15:52.150Z,1.40
2022-11-01T17:18:30.499Z,1.30
2022-11-01T17:20:59.610Z,1.20
2022-11-01T17:23:29.064Z,1.10
2022-11-01T17:25:57.629Z,1.25
2022-11-01T17:28:25.947Z,1.15
2022-11-01T17:30:53.708Z,1.55
2022-11-01T17:33:23.178Z,1.92
2022-11-01T17:35:50.950Z,1.38
2022-11-01T17:38:24.504Z,1.40
2022-11-01T17:40:56.825Z,1.48
2022-11-01T17:43:24.576Z,1.38
2022-11-01T17:45:52.322Z,1.30
2022-11-01T17:48:20.435Z,1.00
2022-11-01T17:50:49.316Z,1.30
2022-11-01T17:53:18.239Z,1.70
2022-11-01T17:55:47.145Z,1.60
2022-11-01T17:58:15.722Z,1.27
2022-11-01T18:00:43.911Z,1.50
2022-11-01T18:03:14.710Z,1.50
2022-11-01T18:05:42.466Z,1.17
2022-11-01T18:08:17.757Z,1.42
2022-11-01T18:10:52.945Z,1.40
2022-11-01T18:13:36.758Z,1.63
2022-11-01T18:16:10.106Z,1.40
2022-11-01T18:18:51.953Z,1.00
2022-11-01T18:21:25.451Z,1.30
2022-11-01T18:23:55.659Z,1.40
2022-11-01T18:26:24.985Z,1.30
2022-11-01T18:28:55.407Z,1.60
2022-11-01T18:31:25.993Z,1.45
2022-11-01T18:33:58.684Z,2.15
2022-11-01T18:36:29.794Z,1.20
2022-11-01T18:39:08.192Z,0.90
2022-11-01T18:41:35.897Z,1.73
2022-11-01T18:44:03.897Z,1.88
2022-11-01T18:46:39.270Z,1.38
2022-11-01T18:49:10.430Z,1.27
2022-11-01T18:51:39.594Z,1.60
2022-11-01T18:54:22.314Z,1.90
2022-11-01T18:56:52.108Z,1.30
2022-11-01T18:59:42.820Z,1.30
2022-11-01T19:02:14.655Z,1.30
2022-11-01T19:04:44.144Z,2.08
2022-11-01T19:07:13.590Z,1.58
2022-11-01T19:09:44.700Z,1.40
2022-11-01T19:12:15.547Z,1.27
2022-11-01T19:14:44.327Z,1.40
2022-11-01T19:17:20.933Z,1.27
2022-11-01T19:19:48.557Z,1.40
2022-11-01T19:22:38.766Z,1.65
2022-11-01T19:25:17.825Z,1.63
2022-11-01T19:27:45.828Z,1.52
2022-11-01T19:30:24.506Z,1.35
2022-11-01T19:32:53.269Z,1.30
2022-11-01T19:35:22.537Z,1.17
2022-11-01T19:37:52.075Z,1.35
2022-11-01T19:40:28.055Z,1.55
2022-11-01T19:42:56.145Z,1.30
2022-11-01T19:45:29.194Z,1.27
2022-11-01T19:47:58.010Z,1.50
2022-11-01T19:50:27.326Z,1.45
2022-11-01T19:52:57.193Z,1.23
2022-11-01T19:55:46.731Z,1.55
2022-11-01T19:58:24.890Z,1.20
2022-11-01T20:01:03.155Z,1.48
2022-11-01T20:03:39.240Z,1.50
2022-11-01T20:06:12.086Z,1.55
2022-11-01T20:08:40.687Z,2.03
2022-11-01T20:11:10.305Z,1.42
2022-11-01T20:13:38.323Z,1.55
2022-11-01T20:16:06.386Z,2.08
2022-11-01T20:18:34.210Z,1.63
2022-11-01T20:21:05.640Z,1.30
2022-11-01T20:23:33.804Z,2.25
2022-11-01T20:26:01.666Z,1.93
2022-11-01T20:28:30.679Z,1.55
2022-11-01T20:30:58.222Z,1.25
2022-11-01T20:33:26.513Z,1.70
2022-11-01T20:35:54.140Z,1.70
2022-11-01T20:38:22.036Z,1.63
2022-11-01T20:40:49.613Z,1.80
2022-11-01T20:43:17.594Z,1.80
2022-11-01T20:45:46.698Z,1.33
2022-11-01T20:48:14.657Z,1.60
2022-11-01T20:50:42.621Z,1.70
2022-11-01T20:53:10.783Z,1.40
2022-11-01T20:55:38.821Z,1.88
2022-11-01T20:58:06.784Z,1.98
2022-11-01T21:00:34.879Z,1.70
2022-11-01T21:03:08.740Z,2.57
2022-11-01T21:05:36.906Z,1.48
2022-11-01T21:08:12.502Z,1.60
2022-11-01T21:10:41.261Z,1.93
2022-11-01T21:13:21.693Z,1.15
2022-11-01T21:15:49.833Z,2.30
2022-11-01T21:18:39.786Z,1.63
2022-11-01T21:21:28.658Z,1.58
2022-11-01T21:23:57.263Z,1.40
2022-11-01T21:26:41.505Z,1.73
2022-11-01T21:29:17.123Z,2.33
2022-11-01T21:31:45.193Z,1.70
2022-11-01T21:34:26.332Z,1.60
2022-11-01T21:36:54.146Z,1.65
2022-11-01T21:39:23.462Z,1.92
2022-11-01T21:41:52.750Z,2.05
2022-11-01T21:44:25.780Z,1.88
2022-11-01T21:46:55.184Z,1.70
2022-11-01T21:49:29.495Z,1.42
2022-11-01T21:51:58.882Z,1.70
2022-11-01T21:54:27.034Z,2.35
2022-11-01T21:56:54.779Z,1.73
2022-11-01T21:59:22.360Z,1.73
2022-11-01T22:01:50.336Z,1.65
2022-11-01T22:04:22.154Z,1.80
2022-11-01T22:06:52.830Z,1.70
2022-11-01T22:09:22.573Z,1.75
2022-11-01T22:11:50.311Z,1.50
2022-11-01T22:14:18.053Z,1.77
2022-11-01T22:16:45.842Z,1.83
2022-11-01T22:19:14.176Z,1.63
2022-11-01T22:21:42.033Z,1.45
2022-11-01T22:24:11.277Z,1.70
2022-11-01T22:26:38.825Z,1.58
2022-11-01T22:29:07.771Z,1.17
2022-11-01T22:31:36.472Z,1.63
2022-11-01T22:34:04.029Z,1.43
2022-11-01T22:36:34.517Z,1.80
2022-11-01T22:39:03.749Z,1.50
2022-11-01T22:41:36.668Z,1.70
2022-11-01T22:44:07.022Z,1.73
2022-11-01T22:46:43.804Z,1.40
2022-11-01T22:49:15.123Z,1.42
2022-11-01T22:51:45.116Z,1.80
2022-11-01T22:54:31.536Z,1.52
2022-11-01T22:57:03.016Z,1.40
2022-11-01T22:59:33.392Z,1.48
2022-11-01T23:02:16.971Z,2.05
2022-11-01T23:04:44.648Z,1.35
2022-11-01T23:07:22.181Z,1.90
2022-11-01T23:09:50.250Z,1.90
2022-11-01T23:12:41.342Z,1.48
2022-11-01T23:15:22.454Z,1.10
2022-11-01T23:17:50.415Z,1.80
2022-11-01T23:20:18.506Z,1.23
2022-11-01T23:22:46.074Z,1.42
2022-11-01T23:25:13.958Z,1.40
2022-11-01T23:27:45.176Z,1.73
2022-11-01T23:30:14.933Z,1.98
2022-11-01T23:32:42.485Z,1.42
2022-11-01T23:35:14.193Z,1.30
2022-11-01T23:37:44.067Z,1.85
2022-11-01T23:40:16.827Z,1.40
2022-11-01T23:42:45.972Z,1.50
2022-11-01T23:45:32.051Z,1.77
2022-11-01T23:48:00.646Z,1.58
2022-11-01T23:50:31.106Z,1.50
2022-11-01T23:53:00.453Z,2.33
2022-11-01T23:55:30.660Z,1.88
2022-11-01T23:58:02.334Z,1.70
